Time;durP1;ratioP1;P1;durP2;ratioP2;P2;SDS_P1;SDS_P2;PMS_P1;PMS_P2;Temp;Humidity;BMP_temperature;BMP_pressure;BME280_temperature;BME280_humidity;BME280_pressure;Samples;Min_cycle;Max_cycle;Signal;HPM_P1;HPM_P2
2023/06/17 00:00:16;;;;;;;8.73;5.32;;;;;;;17.39;47.56;95649.06;4996815;28;20220;-80
2023/06/17 00:02:41;;;;;;;5.20;4.47;;;;;;;17.31;47.55;95649.19;4986643;28;20179;-81
2023/06/17 00:05:07;;;;;;;5.78;5.07;;;;;;;17.30;47.66;95642.31;4994785;28;20278;-81
2023/06/17 00:07:32;;;;;;;5.93;4.68;;;;;;;17.22;47.72;95645.88;4975345;28;20191;-81
2023/06/17 00:09:58;;;;;;;6.50;4.70;;;;;;;17.16;47.94;95639.56;4984512;28;20204;-81
2023/06/17 00:12:31;;;;;;;4.78;4.38;;;;;;;17.23;47.75;95644.88;4999848;28;20256;-80
2023/06/17 00:14:57;;;;;;;5.40;4.70;;;;;;;17.08;47.97;95637.06;4974418;28;20242;-81
2023/06/17 00:17:23;;;;;;;5.90;5.10;;;;;;;17.10;48.21;95645.53;4962073;28;20604;-80
2023/06/17 00:19:49;;;;;;;5.13;4.63;;;;;;;17.06;47.92;95640.88;4980843;28;20726;-80
2023/06/17 00:22:14;;;;;;;4.78;4.38;;;;;;;16.96;48.19;95636.72;4986830;28;20191;-81
2023/06/17 00:24:39;;;;;;;7.63;5.18;;;;;;;16.80;48.63;95636.94;4994960;28;20283;-81
2023/06/17 00:27:05;;;;;;;8.15;5.00;;;;;;;16.86;48.16;95633.56;4990663;28;20673;-81
2023/06/17 00:29:30;;;;;;;6.85;4.60;;;;;;;16.84;48.41;95626.88;4977405;28;20212;-81
2023/06/17 00:31:57;;;;;;;8.50;5.30;;;;;;;16.87;48.69;95623.88;4973136;28;20273;-81
2023/06/17 00:34:22;;;;;;;9.07;5.32;;;;;;;16.75;48.83;95618.31;4987705;28;20207;-80
2023/06/17 00:36:47;;;;;;;8.00;5.35;;;;;;;16.80;48.60;95621.22;4980052;28;20646;-81
2023/06/17 00:39:15;;;;;;;5.95;4.68;;;;;;;16.87;48.42;95618.63;4999367;28;20176;-81
2023/06/17 00:41:40;;;;;;;5.85;4.80;;;;;;;16.86;48.40;95615.22;4973004;28;20183;-81
2023/06/17 00:44:05;;;;;;;10.55;4.95;;;;;;;16.67;48.94;95607.91;4978224;28;20215;-80
2023/06/17 00:46:38;;;;;;;5.85;5.07;;;;;;;16.82;48.47;95613.16;4973616;28;20281;-81
2023/06/17 00:49:05;;;;;;;6.47;4.47;;;;;;;16.78;48.37;95615.31;4959052;28;20655;-81
2023/06/17 00:51:32;;;;;;;6.93;5.00;;;;;;;16.71;48.90;95617.06;4993085;28;20273;-81
2023/06/17 00:53:58;;;;;;;5.63;4.90;;;;;;;16.63;48.90;95612.72;4985082;28;20234;-81
2023/06/17 00:56:25;;;;;;;7.32;5.03;;;;;;;16.57;49.39;95608.19;4975403;28;20192;-82
2023/06/17 00:58:51;;;;;;;6.22;5.28;;;;;;;16.51;48.96;95608.91;4992127;28;20255;-81
2023/06/17 01:01:17;;;;;;;7.35;5.32;;;;;;;16.50;49.17;95607.28;4983828;28;20284;-81
2023/06/17 01:03:43;;;;;;;7.22;5.07;;;;;;;16.54;48.63;95613.81;4978807;28;20710;-82
2023/06/17 01:06:13;;;;;;;7.25;5.55;;;;;;;16.48;48.83;95609.28;4984508;28;20196;-81
2023/06/17 01:08:44;;;;;;;5.88;4.70;;;;;;;16.44;49.12;95610.66;4979652;28;20222;-81
2023/06/17 01:11:19;;;;;;;7.22;5.47;;;;;;;16.49;48.63;95602.22;4974233;28;20720;-81
2023/06/17 01:13:48;;;;;;;6.63;5.65;;;;;;;16.46;48.79;95607.84;4984538;28;20211;-81
2023/06/17 01:16:14;;;;;;;8.25;5.07;;;;;;;16.49;48.82;95603.03;4969297;28;20611;-82
2023/06/17 01:18:40;;;;;;;6.78;4.90;;;;;;;16.49;48.49;95612.72;4972835;28;20706;-81
2023/06/17 01:21:06;;;;;;;5.78;5.22;;;;;;;16.42;48.64;95605.56;4983025;28;20215;-81
2023/06/17 01:23:33;;;;;;;7.75;4.43;;;;;;;16.40;48.87;95612.81;4978963;28;20718;-81
2023/06/17 01:25:59;;;;;;;6.60;4.80;;;;;;;16.40;48.51;95604.94;4985147;28;20210;-81
2023/06/17 01:28:24;;;;;;;6.63;4.70;;;;;;;16.50;48.33;95594.19;4956995;28;20567;-81
2023/06/17 01:30:56;;;;;;;5.57;4.97;;;;;;;16.51;48.13;95603.66;4981955;28;20250;-80
2023/06/17 01:33:23;;;;;;;6.38;5.45;;;;;;;16.51;48.02;95605.47;4989433;28;20652;-81
2023/06/17 01:36:00;;;;;;;4.70;4.07;;;;;;;16.50;48.14;95604.66;4978144;28;20186;-81
2023/06/17 01:38:38;;;;;;;5.85;4.57;;;;;;;16.41;48.23;95597.91;4985518;28;20182;-80
2023/06/17 01:41:09;;;;;;;5.07;4.53;;;;;;;16.37;48.15;95601.88;5002301;28;20194;-81
2023/06/17 01:43:34;;;;;;;6.07;5.22;;;;;;;16.34;48.23;95604.84;4981496;28;20262;-81
2023/06/17 01:46:00;;;;;;;5.45;4.93;;;;;;;16.43;47.89;95606.38;4987491;28;20183;-81
2023/06/17 01:48:26;;;;;;;5.20;4.53;;;;;;;16.38;48.30;95603.50;4974956;28;20207;-81
2023/06/17 01:50:52;;;;;;;5.05;4.53;;;;;;;16.29;48.32;95602.78;4984435;28;20199;-81
2023/06/17 01:53:17;;;;;;;5.53;4.82;;;;;;;16.31;47.89;95603.41;4991416;28;20191;-80
2023/06/17 01:55:42;;;;;;;7.57;5.38;;;;;;;16.28;48.00;95605.59;4992139;28;20214;-81
2023/06/17 01:58:08;;;;;;;6.68;4.88;;;;;;;16.34;48.05;95607.47;4987857;28;20221;-80
2023/06/17 02:00:33;;;;;;;5.50;4.97;;;;;;;16.37;47.92;95610.56;4982620;28;20179;-80
2023/06/17 02:02:58;;;;;;;7.38;5.05;;;;;;;16.31;47.77;95602.59;4986191;28;20283;-80
2023/06/17 02:05:24;;;;;;;8.95;4.50;;;;;;;16.41;47.67;95605.75;5010529;28;20611;-80
2023/06/17 02:07:49;;;;;;;7.57;5.15;;;;;;;16.43;47.25;95603.75;4997227;28;20566;-82
2023/06/17 02:10:15;;;;;;;5.18;4.68;;;;;;;16.39;47.73;95590.22;4973577;28;20251;-82
2023/06/17 02:12:40;;;;;;;5.15;4.20;;;;;;;16.45;47.55;95593.94;4981777;28;20667;-82
2023/06/17 02:15:06;;;;;;;6.03;4.78;;;;;;;16.43;47.60;95588.03;4983422;28;20207;-82
2023/06/17 02:17:32;;;;;;;5.65;4.55;;;;;;;16.33;47.60;95588.31;5006230;28;20183;-82
2023/06/17 02:19:57;;;;;;;9.43;4.80;;;;;;;16.41;47.68;95592.66;4981089;28;20202;-82
2023/06/17 02:22:23;;;;;;;4.88;4.38;;;;;;;16.37;47.60;95594.03;4992770;28;20183;-83
2023/06/17 02:24:48;;;;;;;7.18;4.57;;;;;;;16.31;47.65;95595.56;4966804;28;20228;-82
2023/06/17 02:27:13;;;;;;;5.70;4.68;;;;;;;16.33;47.81;95592.75;4981419;28;20183;-82
2023/06/17 02:29:39;;;;;;;4.90;4.40;;;;;;;16.35;47.34;95588.97;4988490;28;20199;-82
2023/06/17 02:32:04;;;;;;;6.32;4.55;;;;;;;16.35;47.27;95577.69;4995812;28;20183;-82
2023/06/17 02:34:33;;;;;;;5.25;4.68;;;;;;;16.34;47.48;95576.03;4994176;28;20210;-82
2023/06/17 02:36:58;;;;;;;5.70;4.50;;;;;;;16.31;47.48;95573.78;4971361;28;20613;-82
2023/06/17 02:39:23;;;;;;;8.00;4.35;;;;;;;16.39;47.17;95573.69;4988628;28;20179;-82
2023/06/17 02:41:49;;;;;;;4.70;4.22;;;;;;;16.46;46.97;95571.16;4991605;28;20187;-82
2023/06/17 02:44:14;;;;;;;6.22;4.50;;;;;;;16.37;47.08;95565.19;4984573;28;20196;-83
2023/06/17 02:46:39;;;;;;;5.15;4.47;;;;;;;16.40;47.05;95570.88;4981332;28;20183;-82
2023/06/17 02:49:05;;;;;;;6.22;4.43;;;;;;;16.36;47.09;95567.00;4972799;28;20695;-82
2023/06/17 02:51:32;;;;;;;7.68;4.75;;;;;;;16.40;46.81;95565.63;4982984;28;20673;-82
2023/06/17 02:53:57;;;;;;;4.57;4.18;;;;;;;16.40;46.75;95572.69;4993030;28;20750;-82
2023/06/17 02:56:22;;;;;;;5.78;4.88;;;;;;;16.32;46.80;95570.16;4985251;28;20221;-82
2023/06/17 02:58:49;;;;;;;4.78;4.22;;;;;;;16.39;46.52;95571.06;4980565;28;20183;-82
2023/06/17 03:01:14;;;;;;;6.25;4.72;;;;;;;16.40;46.74;95570.06;4970963;28;20195;-82
2023/06/17 03:03:41;;;;;;;4.97;4.30;;;;;;;16.34;46.79;95568.16;4994280;28;20180;-83
2023/06/17 03:06:07;;;;;;;7.43;4.32;;;;;;;16.34;46.86;95569.00;4978688;28;20180;-82
2023/06/17 03:08:34;;;;;;;4.82;4.25;;;;;;;16.39;46.66;95569.25;4985435;28;20200;-82
2023/06/17 03:11:00;;;;;;;9.82;4.50;;;;;;;16.39;46.98;95568.44;4979057;28;20180;-82
2023/06/17 03:13:29;;;;;;;5.00;4.45;;;;;;;16.32;47.07;95575.41;4985847;28;20179;-83
2023/06/17 03:15:55;;;;;;;5.75;4.30;;;;;;;16.38;46.96;95567.63;4971651;28;20653;-82
2023/06/17 03:18:21;;;;;;;4.78;4.25;;;;;;;16.35;47.40;95567.19;4980987;28;20198;-82
2023/06/17 03:20:48;;;;;;;6.60;4.45;;;;;;;16.29;47.39;95573.16;4980991;28;20191;-83
2023/06/17 03:23:15;;;;;;;5.22;4.72;;;;;;;16.28;47.08;95564.47;4995607;28;20249;-82
2023/06/17 03:25:40;;;;;;;5.45;4.18;;;;;;;16.30;46.94;95566.91;4994650;28;20223;-82
2023/06/17 03:28:06;;;;;;;5.30;4.50;;;;;;;16.35;46.86;95570.63;4986038;28;20273;-83
2023/06/17 03:30:31;;;;;;;4.80;4.30;;;;;;;16.30;46.99;95570.34;5013985;28;20262;-82
2023/06/17 03:33:00;;;;;;;8.20;4.88;;;;;;;16.38;46.67;95574.69;4975344;28;20196;-82
2023/06/17 03:35:26;;;;;;;5.45;4.53;;;;;;;16.39;46.46;95571.88;4978333;28;20204;-82
2023/06/17 03:37:51;;;;;;;7.40;4.63;;;;;;;16.54;46.05;95574.47;4979550;28;20675;-82
2023/06/17 03:40:16;;;;;;;5.60;4.40;;;;;;;16.60;45.92;95575.53;4987868;28;20191;-81
2023/06/17 03:42:42;;;;;;;5.10;4.63;;;;;;;16.78;45.99;95567.28;4996579;28;20190;-83
2023/06/17 03:45:07;;;;;;;6.35;4.38;;;;;;;17.04;45.15;95575.44;5012555;28;20222;-82
2023/06/17 03:47:33;;;;;;;5.38;4.18;;;;;;;17.42;44.39;95581.25;4985543;28;20808;-82
2023/06/17 03:49:58;;;;;;;4.60;4.18;;;;;;;17.30;44.17;95576.69;4981214;28;20687;-81
2023/06/17 03:52:23;;;;;;;5.05;4.55;;;;;;;17.73;43.47;95582.75;4986767;28;20644;-81
2023/06/17 03:54:49;;;;;;;7.55;4.55;;;;;;;18.07;42.75;95574.91;4992933;28;20298;-82
2023/06/17 03:57:14;;;;;;;9.30;4.32;;;;;;;18.70;41.60;95574.81;4977679;28;20211;-82
2023/06/17 03:59:40;;;;;;;7.07;4.65;;;;;;;19.02;40.63;95580.38;4984580;28;20179;-82
2023/06/17 04:02:05;;;;;;;5.10;4.60;;;;;;;19.49;39.54;95574.16;4990610;28;20722;-82
2023/06/17 04:04:34;;;;;;;4.53;4.13;;;;;;;20.01;38.46;95581.25;5000836;28;20206;-82
2023/06/17 04:07:00;;;;;;;5.45;4.65;;;;;;;19.76;39.29;95572.38;4983781;28;20187;-82
2023/06/17 04:09:25;;;;;;;4.93;4.40;;;;;;;20.15;38.17;95579.41;4982420;28;20261;-81
2023/06/17 04:11:51;;;;;;;6.38;4.35;;;;;;;20.49;37.35;95583.59;4987737;28;20609;-81
2023/06/17 04:14:16;;;;;;;5.68;4.30;;;;;;;19.91;38.28;95578.22;4980449;28;20720;-81
2023/06/17 04:16:44;;;;;;;5.78;4.80;;;;;;;19.67;38.70;95577.03;5009524;28;20187;-83
2023/06/17 04:19:13;;;;;;;7.72;4.53;;;;;;;20.29;37.76;95575.72;4985861;28;20175;-84
2023/06/17 04:21:42;;;;;;;5.28;4.70;;;;;;;20.81;36.84;95583.69;4979963;28;20180;-83
2023/06/17 04:24:07;;;;;;;4.60;4.20;;;;;;;21.24;35.96;95586.50;4987607;28;20210;-82
2023/06/17 04:26:32;;;;;;;4.80;4.35;;;;;;;21.51;36.14;95586.34;4996557;28;20250;-82
2023/06/17 04:29:00;;;;;;;6.50;4.60;;;;;;;22.17;34.77;95589.25;4980758;28;20273;-83
2023/06/17 04:31:27;;;;;;;8.02;4.55;;;;;;;22.22;34.52;95585.97;4998929;28;20187;-78
2023/06/17 04:33:52;;;;;;;4.88;4.40;;;;;;;22.19;34.41;95586.41;5005090;28;20213;-82
2023/06/17 04:36:18;;;;;;;6.68;4.78;;;;;;;21.93;34.58;95585.59;4989289;28;20193;-84
2023/06/17 04:38:51;;;;;;;5.35;4.20;;;;;;;22.38;34.49;95587.22;5007066;28;20290;-89
2023/06/17 04:41:17;;;;;;;4.93;4.32;;;;;;;22.76;33.82;95577.19;4997408;28;20191;-82
2023/06/17 04:43:45;;;;;;;4.57;4.18;;;;;;;23.31;32.74;95578.94;5001420;28;20251;-78
2023/06/17 04:46:10;;;;;;;4.55;3.90;;;;;;;23.88;32.10;95582.78;4994195;28;20263;-79
2023/06/17 04:48:37;;;;;;;4.30;3.95;;;;;;;23.95;31.55;95585.31;4993527;28;20208;-79
2023/06/17 04:51:03;;;;;;;5.72;4.30;;;;;;;24.35;31.13;95582.78;4985538;28;20184;-79
2023/06/17 04:53:28;;;;;;;4.68;4.28;;;;;;;24.72;30.37;95582.47;5006593;28;20203;-79
2023/06/17 04:55:54;;;;;;;4.35;3.95;;;;;;;25.85;28.55;95586.16;5002729;28;20218;-78
2023/06/17 04:58:19;;;;;;;13.82;4.60;;;;;;;25.54;29.10;95590.16;4997388;28;20183;-78
2023/06/17 05:00:44;;;;;;;5.97;4.25;;;;;;;26.20;28.61;95594.69;5008846;28;20207;-78
2023/06/17 05:03:10;;;;;;;4.93;4.43;;;;;;;26.54;27.97;95586.66;5011569;28;20176;-76
2023/06/17 05:05:35;;;;;;;4.60;4.28;;;;;;;26.83;27.06;95595.25;5005030;28;20223;-77
2023/06/17 05:08:00;;;;;;;5.38;4.20;;;;;;;27.16;27.26;95585.53;4989235;28;20279;-77
2023/06/17 05:10:26;;;;;;;7.57;4.30;;;;;;;27.28;26.65;95592.31;4988526;28;20226;-77
2023/06/17 05:12:51;;;;;;;4.55;4.07;;;;;;;27.46;26.64;95591.16;4993525;28;20651;-77
2023/06/17 05:15:17;;;;;;;5.82;3.80;;;;;;;27.27;27.08;95587.25;5005378;28;20207;-77
2023/06/17 05:17:42;;;;;;;6.35;4.18;;;;;;;27.03;27.49;95592.06;4980001;28;20229;-77
2023/06/17 05:20:09;;;;;;;5.45;4.22;;;;;;;27.00;27.65;95597.88;4995856;28;20180;-77
2023/06/17 05:22:34;;;;;;;4.60;4.20;;;;;;;27.45;26.98;95592.22;4984907;28;20183;-77
2023/06/17 05:25:00;;;;;;;5.97;3.75;;;;;;;28.53;25.94;95593.88;4979208;28;20277;-77
2023/06/17 05:27:25;;;;;;;4.28;3.85;;;;;;;28.45;26.26;95598.66;4997247;28;20183;-77
2023/06/17 05:29:50;;;;;;;4.45;4.00;;;;;;;29.71;25.84;95603.94;5005783;28;20222;-77
2023/06/17 05:32:16;;;;;;;7.10;3.92;;;;;;;29.22;25.54;95609.69;4982946;28;20182;-77
2023/06/17 05:34:41;;;;;;;4.47;3.95;;;;;;;29.48;25.65;95605.19;4992202;28;20695;-77
2023/06/17 05:37:06;;;;;;;4.68;4.00;;;;;;;29.14;26.55;95607.53;5012401;28;20206;-77
2023/06/17 05:39:32;;;;;;;7.05;4.65;;;;;;;28.47;26.53;95601.06;5003048;28;20207;-77
2023/06/17 05:41:57;;;;;;;5.90;4.35;;;;;;;29.03;25.56;95607.50;4993938;28;20178;-77
2023/06/17 05:44:22;;;;;;;7.38;4.63;;;;;;;29.14;25.22;95611.00;4984580;28;20210;-77
2023/06/17 05:46:48;;;;;;;7.13;4.03;;;;;;;30.23;24.71;95611.72;4994578;28;20547;-78
2023/06/17 05:49:14;;;;;;;5.53;4.20;;;;;;;30.58;24.94;95624.25;5013370;28;20233;-78
2023/06/17 05:51:40;;;;;;;4.43;3.97;;;;;;;30.91;25.05;95627.38;5016695;28;20651;-78
2023/06/17 05:54:05;;;;;;;4.53;4.13;;;;;;;31.24;24.12;95624.03;4994245;28;20297;-78
2023/06/17 05:56:30;;;;;;;7.05;4.28;;;;;;;31.18;23.31;95629.66;4968142;28;20693;-78
2023/06/17 05:58:56;;;;;;;4.82;4.43;;;;;;;30.16;24.77;95621.91;5005246;28;20207;-78
2023/06/17 06:01:21;;;;;;;5.28;4.75;;;;;;;31.17;24.19;95620.81;5012244;28;20182;-78
2023/06/17 06:03:46;;;;;;;6.00;4.13;;;;;;;31.01;23.71;95624.69;5007307;28;20268;-78
2023/06/17 06:06:12;;;;;;;4.65;4.25;;;;;;;32.16;22.36;95623.47;4990275;28;20222;-78
2023/06/17 06:08:37;;;;;;;5.53;3.70;;;;;;;31.08;22.75;95625.16;5014023;28;20202;-78
2023/06/17 06:11:02;;;;;;;4.82;4.40;;;;;;;30.47;23.61;95617.28;5000251;28;20186;-78
2023/06/17 06:13:28;;;;;;;6.40;4.60;;;;;;;29.84;24.56;95614.91;4994732;28;20213;-78
2023/06/17 06:15:54;;;;;;;5.22;4.10;;;;;;;30.08;24.37;95615.22;5006512;28;20191;-78
2023/06/17 06:18:19;;;;;;;4.57;4.18;;;;;;;30.18;23.26;95617.88;4991477;28;20234;-77
2023/06/17 06:20:45;;;;;;;4.80;4.13;;;;;;;30.16;22.99;95617.34;4985228;28;20255;-78
2023/06/17 06:23:10;;;;;;;5.65;4.22;;;;;;;30.52;23.32;95630.69;5001759;28;20234;-78
2023/06/17 06:25:35;;;;;;;4.43;3.90;;;;;;;30.77;23.20;95627.16;4980456;28;20219;-78
2023/06/17 06:28:01;;;;;;;4.72;4.32;;;;;;;31.52;21.87;95638.63;4988679;28;20184;-78
2023/06/17 06:30:26;;;;;;;6.03;3.72;;;;;;;31.66;21.50;95630.00;5001925;28;20195;-78
2023/06/17 06:32:51;;;;;;;4.65;4.18;;;;;;;33.11;20.46;95630.03;4993113;28;20198;-78
2023/06/17 06:35:17;;;;;;;5.07;4.50;;;;;;;32.42;21.20;95640.16;5000733;28;20319;-77
2023/06/17 06:37:42;;;;;;;5.43;4.43;;;;;;;32.15;20.70;95635.25;5015593;28;20572;-78
2023/06/17 06:40:08;;;;;;;5.20;4.20;;;;;;;32.68;20.46;95628.06;4991152;28;20278;-78
2023/06/17 06:42:33;;;;;;;5.50;4.78;;;;;;;32.62;20.56;95633.78;4983545;28;20755;-77
2023/06/17 06:44:58;;;;;;;5.60;4.22;;;;;;;32.76;20.29;95636.59;4987660;28;20294;-78
2023/06/17 06:47:24;;;;;;;4.35;3.95;;;;;;;32.08;20.49;95640.97;5008641;28;20191;-77
2023/06/17 06:49:49;;;;;;;5.20;4.30;;;;;;;32.71;20.04;95637.47;4982803;28;20199;-78
2023/06/17 06:52:15;;;;;;;5.18;4.45;;;;;;;32.64;19.90;95643.16;4988682;28;20282;-78
2023/06/17 06:54:40;;;;;;;4.65;4.25;;;;;;;32.57;19.66;95644.59;5016597;28;20201;-78
2023/06/17 06:57:05;;;;;;;6.50;4.78;;;;;;;32.57;19.50;95642.69;4988889;28;20257;-78
2023/06/17 06:59:31;;;;;;;4.68;3.95;;;;;;;32.87;19.72;95652.38;5013335;28;20238;-78
2023/06/17 07:01:56;;;;;;;6.03;4.38;;;;;;;32.90;19.04;95651.78;5017968;28;20660;-78
2023/06/17 07:04:22;;;;;;;5.57;4.50;;;;;;;32.22;20.27;95651.06;4994682;28;20195;-78
2023/06/17 07:06:47;;;;;;;5.00;4.60;;;;;;;32.21;21.41;95649.47;4986946;28;20230;-78
2023/06/17 07:09:12;;;;;;;4.75;4.40;;;;;;;32.20;22.36;95654.03;4986477;28;20571;-79
2023/06/17 07:11:38;;;;;;;4.53;4.10;;;;;;;32.01;22.14;95647.75;4994115;28;20187;-79
2023/06/17 07:14:03;;;;;;;5.03;4.63;;;;;;;31.96;21.32;95647.78;5001654;28;20230;-79
2023/06/17 07:16:29;;;;;;;4.88;4.47;;;;;;;32.61;21.55;95645.63;4997104;28;20207;-79
2023/06/17 07:18:54;;;;;;;5.30;4.80;;;;;;;33.62;20.62;95650.91;4980898;28;20190;-77
2023/06/17 07:21:20;;;;;;;7.50;5.97;;;;;;;31.95;22.03;95652.34;4989338;28;20182;-77
2023/06/17 07:23:45;;;;;;;7.57;5.20;;;;;;;31.71;22.26;95657.56;4977104;28;20216;-78
2023/06/17 07:26:10;;;;;;;4.88;4.38;;;;;;;32.18;20.72;95656.22;4989561;28;20196;-79
2023/06/17 07:28:36;;;;;;;6.65;4.82;;;;;;;31.41;21.96;95657.78;4992143;28;20200;-79
2023/06/17 07:31:01;;;;;;;4.97;4.40;;;;;;;29.78;23.54;95658.00;5014804;28;20700;-79
2023/06/17 07:33:26;;;;;;;5.25;4.40;;;;;;;29.16;24.04;95657.03;4990361;28;20191;-79
2023/06/17 07:35:52;;;;;;;5.95;4.72;;;;;;;29.27;24.40;95655.19;4997172;28;20188;-79
2023/06/17 07:38:17;;;;;;;4.55;4.15;;;;;;;29.84;23.90;95646.22;4987391;28;20265;-79
2023/06/17 07:40:43;;;;;;;7.20;4.63;;;;;;;30.51;23.06;95647.03;4992496;28;20183;-78
2023/06/17 07:43:09;;;;;;;7.60;4.82;;;;;;;29.73;24.79;95641.94;5016143;28;20222;-79
2023/06/17 07:45:35;;;;;;;7.60;4.80;;;;;;;30.84;23.45;95648.34;4986619;28;20729;-79
2023/06/17 07:48:00;;;;;;;6.80;4.68;;;;;;;29.71;24.74;95647.56;4997533;28;20179;-80
2023/06/17 07:50:25;;;;;;;5.35;4.60;;;;;;;31.38;23.17;95655.66;4990104;28;20199;-79
2023/06/17 07:52:52;;;;;;;5.60;5.10;;;;;;;31.61;23.23;95651.47;5007538;28;20192;-79
2023/06/17 07:55:18;;;;;;;4.90;4.43;;;;;;;30.13;25.67;95651.91;4978009;28;20229;-79
2023/06/17 07:57:44;;;;;;;5.00;4.50;;;;;;;31.10;24.21;95649.84;4988538;28;20594;-79
2023/06/17 08:00:10;;;;;;;6.25;5.00;;;;;;;30.56;23.53;95650.50;4986490;28;20190;-79
2023/06/17 08:02:35;;;;;;;5.00;4.60;;;;;;;28.72;26.53;95646.63;5011019;28;20251;-79
2023/06/17 08:05:00;;;;;;;5.32;4.82;;;;;;;29.25;26.30;95649.28;5002577;28;20210;-79
2023/06/17 08:07:26;;;;;;;8.68;5.25;;;;;;;29.63;25.32;95650.75;4997499;28;20191;-79
2023/06/17 08:09:52;;;;;;;11.38;5.03;;;;;;;29.87;23.85;95651.06;4972187;28;20731;-79
2023/06/17 08:12:17;;;;;;;6.82;5.10;;;;;;;28.74;25.19;95651.72;4985765;28;20180;-79
2023/06/17 08:14:42;;;;;;;9.23;4.75;;;;;;;29.34;24.60;95645.84;5006761;28;20207;-77
2023/06/17 08:17:08;;;;;;;5.88;4.55;;;;;;;28.94;25.03;95638.47;4992679;28;20671;-78
2023/06/17 08:19:33;;;;;;;7.55;4.68;;;;;;;28.63;26.62;95645.53;5001901;28;20569;-77
2023/06/17 08:21:58;;;;;;;6.38;4.68;;;;;;;29.60;23.92;95641.38;5010099;28;20179;-79
2023/06/17 08:24:25;;;;;;;8.10;4.85;;;;;;;29.76;24.68;95638.72;5016728;28;20227;-79
2023/06/17 08:26:51;;;;;;;8.07;4.88;;;;;;;28.93;24.31;95647.56;4978943;28;20259;-78
2023/06/17 08:29:17;;;;;;;6.50;5.38;;;;;;;29.29;23.23;95637.00;5005642;28;20207;-78
2023/06/17 08:31:43;;;;;;;5.20;4.70;;;;;;;28.38;24.43;95637.34;4984089;28;20187;-78
2023/06/17 08:34:09;;;;;;;5.07;4.57;;;;;;;28.87;24.59;95637.06;4980890;28;20206;-77
2023/06/17 08:36:37;;;;;;;5.68;4.88;;;;;;;29.49;23.57;95639.75;4994407;28;20186;-78
2023/06/17 08:39:02;;;;;;;5.30;4.80;;;;;;;27.92;25.40;95629.78;4981057;28;20198;-78
2023/06/17 08:41:28;;;;;;;5.75;4.90;;;;;;;27.22;24.93;95625.34;4988928;28;20238;-80
2023/06/17 08:43:57;;;;;;;8.98;5.20;;;;;;;27.43;25.28;95629.03;5001391;28;20241;-79
2023/06/17 08:46:24;;;;;;;4.88;4.38;;;;;;;26.97;26.54;95633.00;4996501;28;20658;-79
2023/06/17 08:48:50;;;;;;;6.13;4.93;;;;;;;27.55;25.48;95636.84;4995784;28;20200;-79
2023/06/17 08:51:15;;;;;;;5.20;4.80;;;;;;;27.52;26.63;95626.69;4985199;28;20198;-79
2023/06/17 08:53:44;;;;;;;6.85;5.10;;;;;;;28.09;25.37;95628.81;4991926;28;20187;-79
2023/06/17 08:56:09;;;;;;;5.47;4.97;;;;;;;28.14;25.17;95639.53;4986049;28;20223;-79
2023/06/17 08:58:37;;;;;;;8.02;5.68;;;;;;;27.86;25.27;95633.44;4988650;28;20252;-79
2023/06/17 09:01:04;;;;;;;5.70;5.10;;;;;;;26.90;26.00;95637.72;4996000;28;20207;-79
2023/06/17 09:03:31;;;;;;;5.20;4.75;;;;;;;26.19;27.27;95638.31;5001524;28;20191;-79
2023/06/17 09:05:57;;;;;;;5.93;5.03;;;;;;;26.04;28.62;95640.72;4994518;28;20206;-78
2023/06/17 09:08:22;;;;;;;7.75;5.72;;;;;;;25.99;28.68;95635.34;4990927;28;20190;-79
2023/06/17 09:10:48;;;;;;;6.93;6.28;;;;;;;25.69;28.99;95636.41;4986543;28;20221;-79
2023/06/17 09:13:13;;;;;;;5.78;4.72;;;;;;;26.76;25.13;95640.72;5018161;28;20171;-79
2023/06/17 09:15:40;;;;;;;7.82;4.95;;;;;;;27.24;25.01;95630.41;5003395;28;20259;-79
2023/06/17 09:18:07;;;;;;;7.40;5.03;;;;;;;27.43;25.73;95634.34;4997040;28;20183;-79
2023/06/17 09:20:32;;;;;;;5.32;4.00;;;;;;;27.00;23.89;95624.50;5005240;28;20175;-78
2023/06/17 09:22:58;;;;;;;4.45;4.05;;;;;;;27.89;23.45;95632.94;4995283;28;20191;-79
2023/06/17 09:25:23;;;;;;;10.93;5.72;;;;;;;27.55;25.69;95626.19;4991254;28;20219;-78
2023/06/17 09:27:53;;;;;;;6.30;5.13;;;;;;;26.98;26.89;95637.28;5008012;28;20183;-78
2023/06/17 09:30:23;;;;;;;8.68;4.57;;;;;;;27.78;25.25;95635.78;5007587;28;20188;-78
2023/06/17 09:32:51;;;;;;;8.20;4.90;;;;;;;27.84;25.17;95624.91;5026746;28;20183;-78
2023/06/17 09:35:17;;;;;;;5.30;4.85;;;;;;;27.69;26.10;95635.44;5016260;28;20226;-78
2023/06/17 09:37:44;;;;;;;8.90;5.68;;;;;;;28.42;24.15;95617.06;5003619;28;20194;-78
2023/06/17 09:40:10;;;;;;;6.10;5.57;;;;;;;27.64;24.91;95624.66;5001503;28;20210;-78
2023/06/17 09:42:37;;;;;;;7.68;5.32;;;;;;;27.41;25.35;95614.34;5002015;28;20179;-78
2023/06/17 09:45:06;;;;;;;5.90;5.15;;;;;;;27.60;25.62;95616.38;5008369;28;20741;-78
2023/06/17 09:47:37;;;;;;;8.55;5.13;;;;;;;27.55;25.26;95615.53;4984266;28;20187;-79
2023/06/17 09:50:03;;;;;;;4.97;4.57;;;;;;;27.07;25.46;95628.63;4975898;28;20210;-78
2023/06/17 09:52:32;;;;;;;4.47;4.05;;;;;;;26.95;24.76;95616.47;4988813;28;20261;-78
2023/06/17 09:54:58;;;;;;;6.88;4.50;;;;;;;27.60;25.59;95612.91;4986645;28;20214;-78
2023/06/17 09:57:26;;;;;;;5.43;4.68;;;;;;;28.19;24.99;95613.69;4969240;28;20647;-78
2023/06/17 09:59:54;;;;;;;6.55;4.97;;;;;;;28.18;23.97;95613.94;4979993;28;20551;-79
2023/06/17 10:02:20;;;;;;;9.13;5.15;;;;;;;28.36;23.61;95618.91;4982338;28;20271;-78
2023/06/17 10:04:45;;;;;;;5.03;4.30;;;;;;;27.50;23.81;95610.97;4979629;28;20264;-78
2023/06/17 10:07:11;;;;;;;11.00;4.13;;;;;;;27.16;23.23;95621.00;4994254;28;20694;-78
2023/06/17 10:09:37;;;;;;;3.90;3.60;;;;;;;27.27;21.95;95609.38;4988905;28;20202;-79
2023/06/17 10:12:03;;;;;;;7.35;4.40;;;;;;;27.22;22.59;95603.22;4982276;28;20183;-79
2023/06/17 10:14:32;;;;;;;4.93;4.53;;;;;;;26.83;23.15;95604.06;4984678;28;20215;-78
2023/06/17 10:16:58;;;;;;;4.65;4.18;;;;;;;27.69;23.34;95598.09;4970132;28;20210;-79
2023/06/17 10:19:30;;;;;;;5.35;4.15;;;;;;;27.51;23.54;95595.75;4983217;28;20180;-78
2023/06/17 10:21:56;;;;;;;5.40;3.90;;;;;;;27.55;22.15;95602.19;4994454;28;20562;-78
2023/06/17 10:24:22;;;;;;;4.93;4.28;;;;;;;27.48;21.83;95593.59;4987964;28;20258;-78
2023/06/17 10:26:52;;;;;;;4.13;3.60;;;;;;;28.09;22.74;95596.78;4981771;28;20587;-78
2023/06/17 10:29:17;;;;;;;5.38;4.07;;;;;;;27.59;21.93;95596.09;5001200;28;20183;-78
2023/06/17 10:31:43;;;;;;;4.15;3.58;;;;;;;27.99;22.20;95599.38;5001600;28;20238;-78
2023/06/17 10:34:15;;;;;;;4.38;3.28;;;;;;;28.04;20.51;95594.91;4967747;28;20216;-78
2023/06/17 10:36:40;;;;;;;3.58;3.28;;;;;;;27.62;20.49;95589.44;4980448;28;20186;-78
2023/06/17 10:39:11;;;;;;;4.10;3.80;;;;;;;27.76;22.58;95588.00;4998014;28;20601;-79
2023/06/17 10:41:42;;;;;;;6.32;4.45;;;;;;;27.77;23.65;95580.81;4984224;28;20173;-79
2023/06/17 10:44:20;;;;;;;4.35;3.65;;;;;;;28.13;22.62;95579.22;5012281;28;20777;-79
2023/06/17 10:46:46;;;;;;;6.15;5.55;;;;;;;28.07;22.55;95596.25;5001837;28;20728;-79
2023/06/17 10:49:14;;;;;;;6.32;4.20;;;;;;;27.68;21.60;95588.47;4974824;28;20299;-78
2023/06/17 10:51:47;;;;;;;7.32;3.78;;;;;;;28.13;21.34;95590.69;4996031;28;20622;-78
2023/06/17 10:54:13;;;;;;;8.63;3.75;;;;;;;27.80;20.76;95585.63;4980966;28;20198;-77
2023/06/17 10:56:51;;;;;;;5.28;3.47;;;;;;;28.32;21.34;95584.97;4985018;28;20179;-78
2023/06/17 10:59:26;;;;;;;4.22;3.40;;;;;;;27.70;20.16;95575.69;4982219;28;20287;-78
2023/06/17 11:01:59;;;;;;;7.95;4.05;;;;;;;28.45;20.80;95588.00;4989282;28;20209;-78
2023/06/17 11:04:27;;;;;;;3.47;3.13;;;;;;;28.32;19.75;95585.75;5012790;28;20261;-78
2023/06/17 11:06:52;;;;;;;6.20;3.85;;;;;;;28.49;20.32;95583.72;4990907;28;20644;-78
2023/06/17 11:09:17;;;;;;;8.35;3.80;;;;;;;28.30;21.95;95587.09;4984249;28;20258;-78
2023/06/17 11:11:43;;;;;;;4.00;3.70;;;;;;;28.03;20.74;95585.28;4980205;28;20183;-78
2023/06/17 11:14:08;;;;;;;6.00;4.50;;;;;;;28.65;20.94;95586.47;4998795;28;20207;-78
2023/06/17 11:16:33;;;;;;;6.43;3.80;;;;;;;28.69;20.75;95588.34;5030140;28;20168;-78
2023/06/17 11:18:59;;;;;;;4.03;3.63;;;;;;;28.66;20.42;95588.09;5004197;28;20202;-78
2023/06/17 11:21:24;;;;;;;6.13;4.18;;;;;;;28.66;20.75;95588.09;5027677;28;20183;-79
2023/06/17 11:23:50;;;;;;;5.38;4.43;;;;;;;28.18;20.24;95582.72;5001147;28;20264;-79
2023/06/17 11:26:16;;;;;;;5.85;4.50;;;;;;;28.76;20.41;95582.78;4993042;28;20792;-79
2023/06/17 11:28:43;;;;;;;7.30;4.47;;;;;;;27.79;21.82;95582.16;4984288;28;20199;-79